createdAt,value
2023-04-02T00:00:52.355Z,4.400
2023-04-02T00:01:44.960Z,4.550
2023-04-02T00:02:39.002Z,4.600
2023-04-02T00:03:22.277Z,4.500
2023-04-02T00:04:24.500Z,4.100
2023-04-02T00:05:33.976Z,6.300
2023-04-02T00:06:27.736Z,4.300
2023-04-02T00:07:56.719Z,4.750
2023-04-02T00:08:50.022Z,4.800
2023-04-02T00:09:27.806Z,5.400
2023-04-02T00:10:33.623Z,4.850
2023-04-02T00:11:28.334Z,5.100
2023-04-02T00:12:22.184Z,3.800
2023-04-02T00:15:32.827Z,3.950
2023-04-02T00:17:07.283Z,5.100
2023-04-02T00:18:00.410Z,2.900
2023-04-02T00:18:47.441Z,4.200
2023-04-02T00:19:30.321Z,2.900
2023-04-02T00:20:35.753Z,3.050
2023-04-02T00:21:34.660Z,4.800
2023-04-02T00:22:29.571Z,4.250
2023-04-02T00:23:51.655Z,4.700
2023-04-02T00:24:43.798Z,3.100
2023-04-02T00:25:34.984Z,2.800
2023-04-02T00:26:29.510Z,2.650
2023-04-02T00:27:23.082Z,2.700
2023-04-02T00:28:31.472Z,3.000
2023-04-02T00:29:26.110Z,2.000
2023-04-02T00:30:55.085Z,2.550
2023-04-02T00:31:19.495Z,3.400
2023-04-02T00:32:35.123Z,2.600
2023-04-02T00:33:33.566Z,3.100
2023-04-02T00:34:26.754Z,1.900
2023-04-02T00:35:39.900Z,2.850
2023-04-02T00:36:28.578Z,2.700
2023-04-02T00:37:21.269Z,2.350
2023-04-02T00:38:51.691Z,3.000
2023-04-02T00:39:44.761Z,2.200
2023-04-02T00:40:39.541Z,2.300
2023-04-02T00:41:30.231Z,3.400
2023-04-02T00:42:22.081Z,2.700
2023-04-02T00:43:32.687Z,2.500
2023-04-02T00:44:25.373Z,2.500
2023-04-02T00:45:57.272Z,2.200
2023-04-02T00:47:06.606Z,3.250
2023-04-02T00:47:41.731Z,2.600
2023-04-02T00:48:35.442Z,3.700
2023-04-02T00:49:28.500Z,2.100
2023-04-02T00:50:48.278Z,2.700
2023-04-02T00:51:29.532Z,2.800
2023-04-02T00:52:22.675Z,2.900
2023-04-02T00:53:52.611Z,3.000
2023-04-02T00:54:28.570Z,2.400
2023-04-02T00:55:41.277Z,3.050
2023-04-02T00:56:31.474Z,3.200
2023-04-02T00:57:24.397Z,2.700
2023-04-02T00:58:33.633Z,3.100
2023-04-02T00:59:27.139Z,2.900
2023-04-02T01:00:24.962Z,2.600
2023-04-02T01:09:01.258Z,3.350
2023-04-02T01:09:46.361Z,3.700
2023-04-02T01:10:58.510Z,5.300
2023-04-02T01:15:23.278Z,4.500
2023-04-02T01:16:21.435Z,6.100
2023-04-02T01:17:37.121Z,5.800
2023-04-02T01:18:40.780Z,6.500
2023-04-02T01:19:47.543Z,5.900
2023-04-02T01:20:25.608Z,5.900
2023-04-02T01:22:08.740Z,5.200
2023-04-02T01:23:54.299Z,6.750
2023-04-02T01:24:47.290Z,6.000
2023-04-02T01:25:40.946Z,7.300
2023-04-02T01:26:33.172Z,7.300
2023-04-02T01:27:25.081Z,5.600
2023-04-02T01:28:30.967Z,5.300
2023-04-02T01:29:30.051Z,5.300
2023-04-02T01:30:23.153Z,6.250
2023-04-02T01:31:50.779Z,7.100
2023-04-02T01:32:44.485Z,7.100
2023-04-02T01:33:26.621Z,7.200
2023-04-02T01:34:30.620Z,6.600
2023-04-02T01:35:23.291Z,6.900
2023-04-02T01:36:33.784Z,7.600
2023-04-02T01:37:27.333Z,6.400
2023-04-02T01:38:20.301Z,9.900
2023-04-02T01:39:28.982Z,7.800
2023-04-02T01:40:41.104Z,7.000
2023-04-02T01:41:34.770Z,7.800
2023-04-02T01:42:28.090Z,6.800
2023-04-02T01:43:39.700Z,8.700
2023-04-02T01:44:20.184Z,8.000
2023-04-02T01:45:24.410Z,7.850
2023-04-02T01:46:47.575Z,8.400
2023-04-02T01:47:45.800Z,9.700
2023-04-02T01:48:57.594Z,8.600
2023-04-02T01:49:31.135Z,8.700
2023-04-02T01:50:26.465Z,9.800
2023-04-02T01:51:37.625Z,9.100
2023-04-02T01:52:28.178Z,8.600
2023-04-02T01:53:22.955Z,9.450
2023-04-02T01:54:49.166Z,6.550
2023-04-02T01:55:42.156Z,6.300
2023-04-02T01:56:29.458Z,7.200
2023-04-02T01:57:27.627Z,7.000
2023-04-02T01:58:22.273Z,9.900
2023-04-02T01:59:34.772Z,11.200
2023-04-02T02:00:25.492Z,9.700
2023-04-02T02:01:21.820Z,10.200
2023-04-02T02:02:36.656Z,10.300
2023-04-02T02:03:40.220Z,6.900
2023-04-02T02:04:32.441Z,8.400
2023-04-02T02:05:25.348Z,9.800
2023-04-02T02:07:11.161Z,10.600
2023-04-02T02:08:23.398Z,9.600
2023-04-02T02:09:49.801Z,9.200
2023-04-02T02:10:43.037Z,10.650
2023-04-02T02:11:38.583Z,10.500
2023-04-02T02:12:28.544Z,9.100
2023-04-02T02:13:21.436Z,9.800
2023-04-02T02:14:33.818Z,9.500
2023-04-02T02:15:26.883Z,11.400
2023-04-02T02:16:20.989Z,10.750
2023-04-02T02:17:47.810Z,7.400
2023-04-02T02:18:25.967Z,9.200
2023-04-02T02:19:34.166Z,9.550
2023-04-02T02:20:25.945Z,7.400
2023-04-02T02:21:38.269Z,8.700
2023-04-02T02:22:32.311Z,7.800
2023-04-02T02:23:24.527Z,9.600
2023-04-02T02:24:30.947Z,10.400
2023-04-02T02:25:43.524Z,9.800
2023-04-02T02:26:38.771Z,8.200
2023-04-02T02:27:30.708Z,9.100
2023-04-02T02:28:21.978Z,9.000
2023-04-02T02:29:20.508Z,8.200
2023-04-02T02:30:28.718Z,8.400
2023-04-02T02:31:21.396Z,8.300
2023-04-02T02:32:48.568Z,9.200
2023-04-02T02:33:41.004Z,8.200
2023-04-02T02:34:32.986Z,8.700
2023-04-02T02:35:26.916Z,9.250
2023-04-02T02:36:40.627Z,5.700
2023-04-02T02:37:32.546Z,7.600
2023-04-02T02:38:26.954Z,5.500
2023-04-02T02:39:52.348Z,6.050
2023-04-02T02:40:45.427Z,6.400
2023-04-02T02:41:32.653Z,7.800
2023-04-02T02:42:30.592Z,7.900
2023-04-02T02:43:23.557Z,7.500
2023-04-02T02:46:22.606Z,7.400
2023-04-02T02:47:39.278Z,8.300
2023-04-02T02:48:41.962Z,9.100
2023-04-02T02:49:35.167Z,6.650
2023-04-02T02:50:28.208Z,9.100
2023-04-02T02:51:20.073Z,7.100
2023-04-02T02:52:28.201Z,7.400
2023-04-02T02:53:27.724Z,7.300
2023-04-02T02:54:21.462Z,9.800
2023-04-02T02:55:46.698Z,8.650
2023-04-02T02:56:39.597Z,9.400
2023-04-02T02:57:21.382Z,7.700
2023-04-02T02:58:26.063Z,7.550
2023-04-02T02:59:37.911Z,6.900
2023-04-02T03:00:31.740Z,6.900
2023-04-02T03:01:24.500Z,7.350
2023-04-02T03:02:52.224Z,7.500
2023-04-02T03:03:26.516Z,7.200
2023-04-02T03:04:39.405Z,7.150
2023-04-02T03:05:30.197Z,6.800
2023-04-02T03:06:22.468Z,7.600
2023-04-02T03:07:38.949Z,7.550
2023-04-02T03:08:31.184Z,7.600
2023-04-02T03:09:26.074Z,6.400
2023-04-02T03:10:46.125Z,7.600
2023-04-02T03:11:44.057Z,6.000
2023-04-02T03:12:35.269Z,7.600
2023-04-02T03:13:25.501Z,8.300
2023-04-02T03:14:29.365Z,8.500
2023-04-02T03:15:51.175Z,7.000
2023-04-02T03:16:34.904Z,6.750
2023-04-02T03:17:58.685Z,6.300
2023-04-02T03:18:46.013Z,7.750
2023-04-02T03:19:43.198Z,8.000
2023-04-02T03:20:36.937Z,7.650
2023-04-02T03:21:30.060Z,7.300
2023-04-02T03:22:56.646Z,8.100
2023-04-02T03:23:32.018Z,5.700
2023-04-02T03:24:24.208Z,7.400
2023-04-02T03:25:48.687Z,6.100
2023-04-02T03:26:34.985Z,5.900
2023-04-02T03:27:36.358Z,7.700
2023-04-02T03:28:28.714Z,7.200
2023-04-02T03:29:51.406Z,8.250
2023-04-02T03:30:35.342Z,7.100
2023-04-02T03:31:24.069Z,7.350
2023-04-02T03:32:20.443Z,7.100
2023-04-02T03:33:55.619Z,5.600
2023-04-02T03:34:44.348Z,6.300
2023-04-02T03:35:34.479Z,6.900
2023-04-02T03:36:29.315Z,6.400
2023-04-02T03:37:37.056Z,5.800
2023-04-02T03:38:34.088Z,6.400
2023-04-02T03:39:36.048Z,6.750
2023-04-02T03:40:54.314Z,4.100
2023-04-02T03:41:47.991Z,5.300
2023-04-02T03:42:25.686Z,4.000
2023-04-02T03:43:33.314Z,4.500
2023-04-02T03:44:25.125Z,4.500
2023-04-02T03:45:47.000Z,4.400
2023-04-02T03:46:29.007Z,5.250
2023-04-02T03:47:21.548Z,6.600
2023-04-02T03:48:27.518Z,5.000
2023-04-02T03:49:40.097Z,6.100
2023-04-02T03:50:32.718Z,6.700
2023-04-02T03:51:25.382Z,4.700
2023-04-02T03:52:40.578Z,5.850
2023-04-02T03:53:32.386Z,6.700
2023-04-02T03:54:26.287Z,6.300
2023-04-02T03:55:45.145Z,7.500
2023-04-02T03:56:43.197Z,5.300
2023-04-02T03:57:36.355Z,4.500
2023-04-02T03:58:27.646Z,3.500
2023-04-02T03:59:24.919Z,4.150
2023-04-02T04:00:38.143Z,4.500
2023-04-02T04:01:30.411Z,4.700
2023-04-02T04:02:25.031Z,5.000
2023-04-02T04:03:47.754Z,5.050
2023-04-02T04:04:40.448Z,4.100
2023-04-02T04:05:28.339Z,4.300
2023-04-02T04:06:26.282Z,4.200
2023-04-02T04:07:41.492Z,5.100
2023-04-02T04:08:35.997Z,4.100
2023-04-02T04:09:27.849Z,4.900
2023-04-02T04:10:20.130Z,6.700
2023-04-02T04:11:35.295Z,5.400
2023-04-02T04:12:39.457Z,7.800
2023-04-02T04:13:30.837Z,6.550
2023-04-02T04:14:23.131Z,6.000
2023-04-02T04:15:38.519Z,7.600
2023-04-02T04:16:24.582Z,6.500
2023-04-02T04:17:24.880Z,6.150
2023-04-02T04:18:47.735Z,5.700
2023-04-02T04:19:41.650Z,8.100
2023-04-02T04:20:34.949Z,4.900
2023-04-02T04:21:26.752Z,6.100
2023-04-02T04:22:30.161Z,6.300
2023-04-02T04:23:39.240Z,8.600
2023-04-02T04:24:31.026Z,6.750
2023-04-02T04:25:23.319Z,4.900
2023-04-02T04:26:45.743Z,6.700
2023-04-02T04:27:24.032Z,6.650
2023-04-02T04:28:30.050Z,8.200
2023-04-02T04:29:22.191Z,6.500
2023-04-02T04:30:40.806Z,7.800
2023-04-02T04:31:33.986Z,8.000
2023-04-02T04:32:25.585Z,8.400
2023-04-02T04:33:27.940Z,9.700
2023-04-02T04:34:41.205Z,8.200
2023-04-02T04:35:34.161Z,9.250
2023-04-02T04:36:28.642Z,10.000
2023-04-02T04:37:19.789Z,7.100
2023-04-02T04:38:37.662Z,6.350
2023-04-02T04:39:32.087Z,7.900
2023-04-02T04:40:23.403Z,7.300
2023-04-02T04:41:46.496Z,8.000
2023-04-02T04:42:39.638Z,5.200
2023-04-02T04:43:30.496Z,6.600
2023-04-02T04:44:23.505Z,7.050
2023-04-02T04:45:38.920Z,7.700
2023-04-02T04:46:34.114Z,8.200
2023-04-02T04:47:28.726Z,7.950
2023-04-02T04:48:20.249Z,8.250
2023-04-02T04:49:43.719Z,8.900
2023-04-02T04:50:30.128Z,8.600
2023-04-02T04:51:27.819Z,7.600
2023-04-02T04:52:22.032Z,7.500
2023-04-02T04:53:40.758Z,10.100
2023-04-02T04:54:33.979Z,8.900
2023-04-02T04:55:21.904Z,6.800
2023-04-02T04:56:35.115Z,8.600
2023-04-02T04:57:38.587Z,5.500
2023-04-02T04:58:33.472Z,7.350
2023-04-02T04:59:26.935Z,8.200
2023-04-02T05:00:42.718Z,8.300
2023-04-02T05:01:25.701Z,6.300
2023-04-02T05:02:28.572Z,8.150
2023-04-02T05:03:21.333Z,5.300
2023-04-02T05:04:44.483Z,6.000
2023-04-02T05:05:39.408Z,7.400
2023-04-02T05:06:30.088Z,8.900
2023-04-02T05:07:22.192Z,8.250
2023-04-02T05:08:39.941Z,8.000
2023-04-02T05:09:32.724Z,6.600
2023-04-02T05:10:25.609Z,6.250
2023-04-02T05:11:48.280Z,5.300
2023-04-02T05:12:24.608Z,5.900
2023-04-02T05:13:39.793Z,6.350
2023-04-02T05:14:27.461Z,5.400
2023-04-02T05:15:43.750Z,7.200
2023-04-02T05:16:38.203Z,5.350
2023-04-02T05:17:29.842Z,5.900
2023-04-02T05:18:22.730Z,5.750
2023-04-02T05:19:41.408Z,4.800
2023-04-02T05:20:39.301Z,5.300
2023-04-02T05:21:31.599Z,5.400
2023-04-02T05:22:22.516Z,5.900
2023-04-02T05:23:22.223Z,4.950
2023-04-02T05:24:34.306Z,5.100
2023-04-02T05:25:27.018Z,5.450
2023-04-02T05:26:48.596Z,5.900
2023-04-02T05:27:42.872Z,7.300
2023-04-02T05:29:00.673Z,5.300
2023-04-02T05:29:26.987Z,4.900
2023-04-02T05:30:20.231Z,5.100
2023-04-02T05:31:39.183Z,6.200
2023-04-02T05:32:33.149Z,6.650
2023-04-02T05:33:24.508Z,6.900
2023-04-02T05:34:45.955Z,6.000
2023-04-02T05:35:31.245Z,6.300
2023-04-02T05:36:30.583Z,5.650
2023-04-02T05:37:25.581Z,5.300
2023-04-02T05:38:44.435Z,4.650
2023-04-02T05:39:37.725Z,4.800
2023-04-02T05:40:23.224Z,4.100
2023-04-02T05:41:21.752Z,4.850
2023-04-02T05:42:41.886Z,3.700
2023-04-02T05:43:38.718Z,5.250
2023-04-02T05:44:30.529Z,4.800
2023-04-02T05:45:20.583Z,3.700
2023-04-02T05:46:28.424Z,4.100
2023-04-02T05:47:33.113Z,3.400
2023-04-02T05:48:27.719Z,4.300
2023-04-02T05:49:46.572Z,4.100
2023-04-02T05:50:40.393Z,5.500
2023-04-02T05:51:31.899Z,4.300
2023-04-02T05:52:24.751Z,4.850
2023-04-02T05:53:44.611Z,4.300
2023-04-02T05:54:58.025Z,3.600
2023-04-02T05:55:31.438Z,4.800
2023-04-02T05:56:22.641Z,5.600
2023-04-02T05:57:39.493Z,4.700
2023-04-02T05:58:37.298Z,4.800
2023-04-02T05:59:28.977Z,4.450
2023-04-02T06:00:24.457Z,4.600
2023-04-02T06:01:43.168Z,4.050
2023-04-02T06:02:34.828Z,3.900
2023-04-02T06:03:28.307Z,5.300
2023-04-02T06:04:20.291Z,5.200
2023-04-02T06:05:39.217Z,6.900
2023-04-02T06:06:34.242Z,4.500
2023-04-02T06:07:25.680Z,5.300
2023-04-02T06:08:20.824Z,4.900
2023-04-02T06:09:35.134Z,4.100
2023-04-02T06:10:31.032Z,3.700
2023-04-02T06:11:25.642Z,3.100
2023-04-02T06:12:44.804Z,3.350
2023-04-02T06:13:38.421Z,6.200
2023-04-02T06:14:26.358Z,4.500
2023-04-02T06:15:23.278Z,3.000
2023-04-02T06:16:43.073Z,3.100
2023-04-02T06:17:38.205Z,4.150
2023-04-02T06:18:30.202Z,3.800
2023-04-02T06:19:22.692Z,3.400
2023-04-02T06:20:32.471Z,4.200
2023-04-02T06:21:34.463Z,4.800
2023-04-02T06:22:27.881Z,4.650
2023-04-02T06:23:21.115Z,4.500
2023-04-02T06:24:41.050Z,4.300
2023-04-02T06:25:23.980Z,4.250
2023-04-02T06:26:25.472Z,2.700
2023-04-02T06:27:44.748Z,2.400
2023-04-02T06:28:37.352Z,3.900
2023-04-02T06:29:30.605Z,3.600
2023-04-02T06:30:23.702Z,5.300
2023-04-02T06:31:27.390Z,3.600
2023-04-02T06:32:42.386Z,3.800
2023-04-02T06:33:31.520Z,3.250
2023-04-02T06:34:24.451Z,2.400
2023-04-02T06:35:43.145Z,2.500
2023-04-02T06:36:20.500Z,2.550
2023-04-02T06:37:27.947Z,3.450
2023-04-02T06:38:22.300Z,3.000
2023-04-02T06:39:41.144Z,2.400
2023-04-02T06:40:36.096Z,3.100
2023-04-02T06:41:54.772Z,2.400
2023-04-02T06:42:19.949Z,2.700
2023-04-02T06:43:39.534Z,3.600
2023-04-02T06:44:31.559Z,4.100
2023-04-02T06:45:26.797Z,2.550
2023-04-02T06:46:46.936Z,2.700
2023-04-02T06:47:39.034Z,3.000
2023-04-02T06:48:32.895Z,3.500
2023-04-02T06:49:24.105Z,4.000
2023-04-02T06:50:43.359Z,2.300
2023-04-02T06:51:37.969Z,2.050
2023-04-02T06:52:29.152Z,2.800
2023-04-02T06:53:21.347Z,2.250
2023-04-02T06:54:38.058Z,1.900
2023-04-02T06:55:38.571Z,2.500
2023-04-02T06:56:29.993Z,1.800
2023-04-02T06:57:21.461Z,1.800
2023-04-02T06:58:41.976Z,1.800
2023-04-02T06:59:27.866Z,2.200
2023-04-02T07:00:25.471Z,2.400
2023-04-02T07:01:47.192Z,2.000
2023-04-02T07:02:41.452Z,2.050
2023-04-02T07:03:34.493Z,2.200
2023-04-02T07:04:25.860Z,2.600
2023-04-02T07:05:31.486Z,3.050
2023-04-02T07:06:38.361Z,3.000
2023-04-02T07:07:31.243Z,2.300
2023-04-02T07:08:24.275Z,3.200
2023-04-02T07:09:43.322Z,3.500
2023-04-02T07:10:25.150Z,2.900
2023-04-02T07:11:29.834Z,2.700
2023-04-02T07:12:24.971Z,2.400
2023-04-02T07:13:40.548Z,3.800
2023-04-02T07:14:34.904Z,2.950
2023-04-02T07:15:26.972Z,2.700
2023-04-02T07:16:20.591Z,4.100
2023-04-02T07:17:41.169Z,2.800
2023-04-02T07:18:34.152Z,4.050
2023-04-02T07:19:28.555Z,4.700
2023-04-02T07:20:19.839Z,3.600
2023-04-02T07:21:21.404Z,4.200
2023-04-02T07:22:33.108Z,3.200
2023-04-02T07:23:25.320Z,3.000
2023-04-02T07:24:45.628Z,3.300
2023-04-02T07:25:40.154Z,4.050
2023-04-02T07:26:31.226Z,3.400
2023-04-02T07:27:25.272Z,3.450
2023-04-02T07:28:42.626Z,3.500
2023-04-02T07:29:35.594Z,3.000
2023-04-02T07:30:29.003Z,3.600
2023-04-02T07:31:20.755Z,2.950
2023-04-02T07:32:43.840Z,3.900
2023-04-02T07:33:30.143Z,5.000
2023-04-02T07:34:29.711Z,5.000
2023-04-02T07:35:22.610Z,2.900
2023-04-02T07:38:24.806Z,2.050
2023-04-02T07:39:39.491Z,3.100
2023-04-02T07:40:39.122Z,2.900
2023-04-02T07:41:34.070Z,3.250
2023-04-02T07:42:27.170Z,3.200
2023-04-02T07:43:43.169Z,2.400
2023-04-02T07:44:27.075Z,2.400
2023-04-02T07:45:29.243Z,2.400
2023-04-02T07:46:23.546Z,2.100
2023-04-02T07:47:44.924Z,3.450
2023-04-02T07:48:37.895Z,3.300
2023-04-02T07:49:29.774Z,5.100
2023-04-02T07:50:23.115Z,3.500
2023-04-02T07:51:39.536Z,3.800
2023-04-02T07:52:32.833Z,2.800
2023-04-02T07:53:25.499Z,3.450
2023-04-02T07:54:49.517Z,2.800
2023-04-02T07:55:27.279Z,2.400
2023-04-02T07:56:34.489Z,3.800
2023-04-02T07:57:28.487Z,2.500
2023-04-02T07:58:21.288Z,3.100
2023-04-02T07:59:40.887Z,3.950
2023-04-02T08:00:29.648Z,3.200
2023-04-02T08:01:22.445Z,4.200
2023-04-02T08:02:44.123Z,3.300
2023-04-02T08:03:40.207Z,3.500
2023-04-02T08:04:56.043Z,2.900
2023-04-02T08:05:24.204Z,3.700
2023-04-02T08:06:21.607Z,2.800
2023-04-02T08:07:34.512Z,2.800
2023-04-02T08:08:26.456Z,3.450
2023-04-02T08:09:20.734Z,2.500
2023-04-02T08:10:43.571Z,4.050
2023-04-02T08:11:35.757Z,3.600
2023-04-02T08:12:28.561Z,3.200
2023-04-02T08:13:21.044Z,3.500
2023-04-02T08:14:38.451Z,3.800
2023-04-02T08:15:32.743Z,2.950
2023-04-02T08:16:23.870Z,3.450
2023-04-02T08:17:48.949Z,3.100
2023-04-02T08:18:42.570Z,2.500
2023-04-02T08:19:41.546Z,2.500
2023-04-02T08:20:25.661Z,2.900
2023-04-02T08:21:43.304Z,3.100
2023-04-02T08:22:36.774Z,3.400
2023-04-02T08:23:24.106Z,2.650
2023-04-02T08:24:21.007Z,2.500
2023-04-02T08:25:43.770Z,3.500
2023-04-02T08:27:04.389Z,2.600
2023-04-02T08:27:29.708Z,3.400
2023-04-02T08:28:25.017Z,3.400
2023-04-02T08:29:28.243Z,3.600
2023-04-02T08:30:31.510Z,3.600
2023-04-02T08:31:25.781Z,3.050
2023-04-02T08:32:49.417Z,3.100
2023-04-02T08:33:42.558Z,2.800
2023-04-02T08:34:21.686Z,3.900
2023-04-02T08:35:28.397Z,3.100
2023-04-02T08:36:21.364Z,4.400
2023-04-02T08:37:35.364Z,2.600
2023-04-02T08:38:28.741Z,2.900
2023-04-02T08:39:21.718Z,3.600
2023-04-02T08:40:26.509Z,3.600
2023-04-02T08:42:02.282Z,2.100
2023-04-02T08:42:33.417Z,2.950
2023-04-02T08:43:26.010Z,2.700
2023-04-02T08:44:41.218Z,2.300
2023-04-02T08:45:32.336Z,2.200
2023-04-02T08:46:27.941Z,4.000
2023-04-02T08:47:45.102Z,2.500
2023-04-02T08:48:44.593Z,2.500
2023-04-02T08:49:28.854Z,2.500
2023-04-02T08:50:29.950Z,2.600
2023-04-02T08:51:22.354Z,2.650
2023-04-02T08:52:36.506Z,1.700
2023-04-02T08:53:22.106Z,1.700
2023-04-02T08:54:26.053Z,2.650
2023-04-02T08:55:45.997Z,2.600
2023-04-02T08:56:30.225Z,2.100
2023-04-02T08:57:27.792Z,3.300
2023-04-02T08:58:25.624Z,3.100
2023-04-02T08:59:40.514Z,2.400
2023-04-02T09:00:26.648Z,2.850
2023-04-02T09:01:26.303Z,3.300
2023-04-02T09:02:19.533Z,2.400
2023-04-02T09:03:34.425Z,2.400
2023-04-02T09:04:20.070Z,2.450
2023-04-02T09:05:31.079Z,3.100
2023-04-02T09:06:24.572Z,3.000
2023-04-02T09:08:16.070Z,2.200
2023-04-02T09:09:25.125Z,2.800
2023-04-02T09:10:39.205Z,2.600
2023-04-02T09:11:23.087Z,1.800
2023-04-02T09:12:34.285Z,2.300
2023-04-02T09:13:26.948Z,2.600
2023-04-02T09:14:23.080Z,2.800
2023-04-02T09:15:35.458Z,2.000
2023-04-02T09:16:27.834Z,2.400
2023-04-02T09:17:21.389Z,2.400
2023-04-02T09:18:27.835Z,3.000
2023-04-02T09:19:21.379Z,2.700
2023-04-02T09:20:32.703Z,2.950
2023-04-02T09:21:25.374Z,2.500
2023-04-02T09:22:21.927Z,1.800
2023-04-02T09:23:33.579Z,2.150
2023-04-02T09:24:25.121Z,2.200
2023-04-02T09:25:28.848Z,2.800
2023-04-02T09:26:43.609Z,2.300
2023-04-02T09:27:38.276Z,1.400
2023-04-02T09:28:30.041Z,2.400
2023-04-02T09:29:24.248Z,2.150
2023-04-02T09:30:35.795Z,2.000
2023-04-02T09:31:32.279Z,1.750
2023-04-02T09:32:22.904Z,1.700
2023-04-02T09:33:48.781Z,2.500
2023-04-02T09:34:41.097Z,2.900
2023-04-02T09:35:33.837Z,2.000
2023-04-02T09:36:29.335Z,2.050
2023-04-02T09:37:36.097Z,2.100
2023-04-02T09:38:33.983Z,2.000
2023-04-02T09:39:25.518Z,2.750
2023-04-02T09:40:22.987Z,2.000
2023-04-02T09:41:50.242Z,1.800
2023-04-02T09:42:29.890Z,2.300
2023-04-02T09:43:31.863Z,2.200
2023-04-02T09:44:22.953Z,1.100
2023-04-02T09:45:40.639Z,2.350
2023-04-02T09:46:31.513Z,1.400
2023-04-02T09:47:25.202Z,2.150
2023-04-02T09:48:34.482Z,2.800
2023-04-02T09:49:42.665Z,2.600
2023-04-02T09:50:35.368Z,1.950
2023-04-02T09:51:22.970Z,2.100
2023-04-02T09:52:20.721Z,2.200
2023-04-02T09:53:24.967Z,2.550
2023-04-02T09:54:28.082Z,1.900
2023-04-02T09:55:19.648Z,2.000
2023-04-02T09:56:46.598Z,2.300
2023-04-02T09:57:37.398Z,1.500
2023-04-02T09:58:23.276Z,1.800
2023-04-02T09:59:25.266Z,2.250
2023-04-02T10:00:39.234Z,3.100
2023-04-02T10:01:31.481Z,2.800
2023-04-02T10:02:24.500Z,2.550
2023-04-02T10:03:53.118Z,2.100
2023-04-02T10:04:22.634Z,2.200
2023-04-02T10:05:40.113Z,2.200
2023-04-02T10:06:30.703Z,2.200
2023-04-02T10:07:22.435Z,1.800
2023-04-02T10:08:36.846Z,1.800
2023-04-02T10:09:21.232Z,2.800
2023-04-02T10:10:20.234Z,3.050
2023-04-02T10:11:50.866Z,1.900
2023-04-02T10:12:30.896Z,3.300
2023-04-02T10:13:35.007Z,2.450
2023-04-02T10:14:26.129Z,2.200
2023-04-02T10:15:38.676Z,1.900
2023-04-02T10:16:26.491Z,2.100
2023-04-02T10:17:24.363Z,2.300
2023-04-02T10:18:44.705Z,3.000
2023-04-02T10:19:33.284Z,2.650
2023-04-02T10:20:48.606Z,1.900
2023-04-02T10:21:25.618Z,1.500
2023-04-02T10:22:24.603Z,2.400
2023-04-02T10:23:26.931Z,1.200
2023-04-02T10:24:30.406Z,2.700
2023-04-02T10:25:21.779Z,2.200
2023-04-02T10:26:38.245Z,1.800
2023-04-02T10:27:22.325Z,2.000
2023-04-02T10:28:35.633Z,2.500
2023-04-02T10:29:28.333Z,3.500
2023-04-02T10:30:21.231Z,2.200
2023-04-02T10:31:32.966Z,2.300
2023-04-02T10:32:21.603Z,2.100
2023-04-02T10:33:34.896Z,1.900
2023-04-02T10:34:24.866Z,1.700
2023-04-02T10:35:40.282Z,1.750
2023-04-02T10:36:33.531Z,1.400
2023-04-02T10:37:24.274Z,2.100
2023-04-02T10:38:21.942Z,2.100
2023-04-02T10:39:29.200Z,2.600
2023-04-02T10:40:23.937Z,3.150
2023-04-02T10:41:29.890Z,2.350
2023-04-02T10:42:44.521Z,2.450
2023-04-02T10:43:36.073Z,1.700
2023-04-02T10:44:32.895Z,1.900
2023-04-02T10:45:24.806Z,2.000
2023-04-02T10:46:33.645Z,2.600
2023-04-02T10:47:26.609Z,2.600
2023-04-02T10:48:20.280Z,2.700
2023-04-02T10:49:22.814Z,2.200
2023-04-02T10:50:40.536Z,1.900
2023-04-02T10:51:33.475Z,2.000
2023-04-02T10:52:27.533Z,2.400
2023-04-02T10:53:39.467Z,2.100
2023-04-02T10:54:30.689Z,2.700
2023-04-02T10:55:25.900Z,2.400
2023-04-02T10:56:22.390Z,2.400
2023-04-02T10:57:45.102Z,3.550
2023-04-02T10:58:39.242Z,2.400
2023-04-02T10:59:30.960Z,3.000
2023-04-02T11:00:23.005Z,2.000
2023-04-02T11:01:35.922Z,2.150
2023-04-02T11:02:27.826Z,3.500
2023-04-02T11:03:22.106Z,2.750
2023-04-02T11:04:49.098Z,2.700
2023-04-02T11:05:43.117Z,2.400
2023-04-02T11:06:26.136Z,1.900
2023-04-02T11:07:27.349Z,2.700
2023-04-02T11:08:20.084Z,2.800
2023-04-02T11:09:31.240Z,2.400
2023-04-02T11:10:26.995Z,3.150
2023-04-02T11:11:53.540Z,3.000
2023-04-02T11:12:32.421Z,2.400
2023-04-02T11:13:37.122Z,1.900
2023-04-02T11:14:23.671Z,2.000
2023-04-02T11:15:24.002Z,2.000
2023-04-02T11:16:38.766Z,2.750
2023-04-02T11:17:22.407Z,2.300
2023-04-02T11:18:21.192Z,3.250
2023-04-02T11:19:52.367Z,2.900
2023-04-02T11:20:43.576Z,2.650
2023-04-02T11:21:26.640Z,2.600
2023-04-02T11:22:28.088Z,3.300
2023-04-02T11:23:22.231Z,2.850
2023-04-02T11:24:33.203Z,2.100
2023-04-02T11:25:19.941Z,2.600
2023-04-02T11:26:55.253Z,2.850
2023-04-02T11:27:42.246Z,2.900
2023-04-02T11:28:28.130Z,2.100
2023-04-02T11:29:34.533Z,2.800
2023-04-02T11:30:28.040Z,2.600
2023-04-02T11:31:37.871Z,2.600
2023-04-02T11:32:23.475Z,2.550
2023-04-02T11:33:30.073Z,2.900
2023-04-02T11:34:23.812Z,2.400
2023-04-02T11:35:32.187Z,2.600
2023-04-02T11:36:38.480Z,2.350
2023-04-02T11:37:31.056Z,2.400
2023-04-02T11:38:22.875Z,2.650
2023-04-02T11:39:35.122Z,2.400
2023-04-02T11:40:28.654Z,2.300
2023-04-02T11:41:19.542Z,3.350
2023-04-02T11:42:34.056Z,2.500
2023-04-02T11:43:21.987Z,3.250
2023-04-02T11:44:36.833Z,3.250
2023-04-02T11:45:22.903Z,4.400
2023-04-02T11:46:21.695Z,2.500
2023-04-02T11:47:30.490Z,3.000
2023-04-02T11:48:24.545Z,2.850
2023-04-02T11:49:40.833Z,2.900
2023-04-02T11:50:23.866Z,3.300
2023-04-02T11:51:27.480Z,2.850
2023-04-02T11:52:33.194Z,2.800
2023-04-02T11:53:25.633Z,2.800
2023-04-02T11:54:35.316Z,2.200
2023-04-02T11:55:27.545Z,2.750
2023-04-02T11:56:20.328Z,2.400
2023-04-02T11:57:27.079Z,2.100
2023-04-02T11:58:45.226Z,2.750
2023-04-02T11:59:37.452Z,2.300
2023-04-02T12:00:30.566Z,2.200
2023-04-02T12:01:22.017Z,3.000
2023-04-02T12:02:22.922Z,3.300
2023-04-02T12:03:24.906Z,3.050
2023-04-02T12:04:30.263Z,2.100
2023-04-02T12:05:47.969Z,3.050
2023-04-02T12:06:41.720Z,2.300
2023-04-02T12:07:32.243Z,2.200
2023-04-02T12:08:28.878Z,2.300
2023-04-02T12:09:35.814Z,2.200
2023-04-02T12:10:28.500Z,2.200
2023-04-02T12:11:23.103Z,2.700
2023-04-02T12:12:19.845Z,2.300
2023-04-02T12:13:19.751Z,3.200
2023-04-02T12:14:35.430Z,2.900
2023-04-02T12:15:30.775Z,3.800
2023-04-02T12:16:22.720Z,2.400
2023-04-02T12:17:34.051Z,1.750
2023-04-02T12:18:25.313Z,2.100
2023-04-02T12:19:25.667Z,2.700
2023-04-02T12:20:40.808Z,3.300
2023-04-02T12:21:42.551Z,1.800
2023-04-02T12:22:35.963Z,2.200
2023-04-02T12:23:26.870Z,2.700
2023-04-02T12:24:20.263Z,1.900
2023-04-02T12:25:30.037Z,1.500
2023-04-02T12:26:23.084Z,2.400
2023-04-02T12:27:54.332Z,2.200
2023-04-02T12:28:48.560Z,1.800
2023-04-02T12:29:35.575Z,2.500
2023-04-02T12:30:23.544Z,1.100
2023-04-02T12:31:24.486Z,1.500
2023-04-02T12:32:33.645Z,1.450
2023-04-02T12:33:31.105Z,2.850
2023-04-02T12:34:19.625Z,1.700
2023-04-02T12:35:51.403Z,1.700
2023-04-02T12:36:28.080Z,1.400
2023-04-02T12:37:23.856Z,1.350
2023-04-02T12:38:28.597Z,1.500
2023-04-02T12:39:24.672Z,2.250
2023-04-02T12:40:32.363Z,2.600
2023-04-02T12:41:23.639Z,2.600
2023-04-02T12:42:33.182Z,2.300
2023-04-02T12:43:41.707Z,2.200
2023-04-02T12:44:28.758Z,2.050
2023-04-02T12:45:33.788Z,1.750
2023-04-02T12:46:25.877Z,1.900
2023-04-02T12:47:23.537Z,1.700
2023-04-02T12:48:22.049Z,1.900
2023-04-02T12:49:20.736Z,1.700
2023-04-02T12:50:44.887Z,2.300
2023-04-02T12:51:31.895Z,2.400
2023-04-02T12:52:37.403Z,1.300
2023-04-02T12:53:31.513Z,1.700
2023-04-02T12:54:24.719Z,1.900
2023-04-02T12:55:25.126Z,1.800
2023-04-02T12:56:24.080Z,2.000
2023-04-02T12:57:47.816Z,1.800
2023-04-02T12:58:23.011Z,1.300
2023-04-02T12:59:20.651Z,1.700
2023-04-02T13:00:36.954Z,1.700
2023-04-02T13:01:28.470Z,1.600
2023-04-02T13:02:20.030Z,2.100
2023-04-02T13:03:29.177Z,1.600
2023-04-02T13:04:22.235Z,1.350
2023-04-02T13:05:40.441Z,1.900
2023-04-02T13:06:24.865Z,1.100
2023-04-02T13:07:39.125Z,1.500
2023-04-02T13:08:33.099Z,1.500
2023-04-02T13:09:27.413Z,1.700
2023-04-02T13:10:31.989Z,2.000
2023-04-02T13:11:25.555Z,1.450
2023-04-02T13:12:38.859Z,1.900